createdAt,value
2018-05-25T00:01:03.627Z,55.58
2018-05-25T00:02:09.393Z,55.73
2018-05-25T00:03:15.256Z,55.78
2018-05-25T00:04:21.016Z,55.84
2018-05-25T00:05:27.547Z,55.76
2018-05-25T00:06:33.346Z,55.84
2018-05-25T00:07:39.104Z,55.92
2018-05-25T00:08:44.851Z,55.87
2018-05-25T00:09:50.609Z,55.96
2018-05-25T00:10:56.364Z,56.02
2018-05-25T00:12:02.173Z,56.11
2018-05-25T00:13:08.123Z,56.13
2018-05-25T00:14:13.876Z,56.05
2018-05-25T00:15:19.633Z,56.04
2018-05-25T00:16:26.191Z,56.05
2018-05-25T00:17:33.491Z,56.09
2018-05-25T00:18:40.350Z,56.20
2018-05-25T00:19:46.099Z,56.35
2018-05-25T00:20:52.615Z,56.40
2018-05-25T00:21:58.363Z,56.22
2018-05-25T00:23:04.150Z,56.33
2018-05-25T00:24:10.668Z,56.47
2018-05-25T00:25:16.427Z,56.55
2018-05-25T00:26:22.209Z,56.49
2018-05-25T00:27:27.964Z,56.52
2018-05-25T00:28:33.748Z,56.54
2018-05-25T00:29:39.500Z,56.63
2018-05-25T00:30:45.267Z,56.64
2018-05-25T00:31:51.043Z,56.57
2018-05-25T00:32:56.468Z,56.57
2018-05-25T00:34:02.252Z,56.56
2018-05-25T00:35:08.011Z,56.54
2018-05-25T00:36:14.528Z,56.56
2018-05-25T00:37:20.299Z,56.61
2018-05-25T00:38:26.101Z,56.59
2018-05-25T00:39:31.882Z,56.53
2018-05-25T00:40:37.652Z,56.45
2018-05-25T00:41:44.167Z,56.55
2018-05-25T00:42:49.923Z,56.51
2018-05-25T00:43:55.703Z,56.53
2018-05-25T00:45:02.462Z,56.61
2018-05-25T00:46:08.982Z,56.69
2018-05-25T00:47:14.739Z,56.80
2018-05-25T00:48:20.499Z,56.93
2018-05-25T00:49:27.019Z,56.94
2018-05-25T00:50:32.800Z,56.87
2018-05-25T00:51:39.318Z,56.97
2018-05-25T00:52:45.063Z,57.06
2018-05-25T00:53:50.822Z,57.13
2018-05-25T00:55:13.539Z,57.27
2018-05-25T00:56:19.314Z,57.43
2018-05-25T00:57:25.833Z,57.47
2018-05-25T00:58:31.586Z,57.58
2018-05-25T00:59:38.846Z,57.67
2018-05-25T01:00:44.611Z,57.72
2018-05-25T01:01:50.403Z,57.76
2018-05-25T01:02:56.157Z,57.84
2018-05-25T01:04:01.935Z,57.97
2018-05-25T01:05:07.702Z,58.03
2018-05-25T01:06:14.216Z,58.21
2018-05-25T01:07:19.996Z,58.22
2018-05-25T01:08:26.522Z,58.24
2018-05-25T01:09:32.279Z,58.27
2018-05-25T01:10:38.040Z,58.38
2018-05-25T01:11:44.566Z,58.36
2018-05-25T01:12:50.351Z,58.38
2018-05-25T01:13:56.869Z,58.44
2018-05-25T01:15:02.435Z,58.48
2018-05-25T01:16:08.363Z,58.55
2018-05-25T01:17:14.110Z,58.62
2018-05-25T01:18:19.936Z,58.70
2018-05-25T01:19:25.864Z,58.78
2018-05-25T01:20:31.369Z,58.78
2018-05-25T01:21:37.121Z,58.81
2018-05-25T01:22:42.990Z,58.89
2018-05-25T01:23:48.775Z,59.08
2018-05-25T01:24:55.295Z,58.98
2018-05-25T01:26:01.059Z,59.06
2018-05-25T01:27:06.815Z,59.18
2018-05-25T01:28:12.579Z,59.21
2018-05-25T01:29:19.128Z,59.29
2018-05-25T01:30:25.319Z,59.28
2018-05-25T01:31:31.075Z,59.36
2018-05-25T01:32:36.847Z,59.39
2018-05-25T01:33:42.607Z,59.50
2018-05-25T01:34:49.148Z,59.37
2018-05-25T01:35:54.898Z,59.35
2018-05-25T01:37:01.418Z,59.37
2018-05-25T01:38:06.843Z,59.38
2018-05-25T01:39:12.599Z,59.53
2018-05-25T01:40:18.367Z,59.57
2018-05-25T01:41:24.121Z,59.72
2018-05-25T01:42:31.007Z,59.73
2018-05-25T01:43:36.778Z,59.75
2018-05-25T01:44:42.538Z,59.82
2018-05-25T01:45:48.325Z,59.99
2018-05-25T01:46:54.850Z,60.01
2018-05-25T01:48:00.615Z,60.07
2018-05-25T01:49:07.132Z,60.21
2018-05-25T01:50:12.565Z,60.17
2018-05-25T01:51:18.350Z,60.28
2018-05-25T01:52:24.672Z,60.31
2018-05-25T01:53:30.421Z,60.23
2018-05-25T01:54:36.179Z,60.29
2018-05-25T01:55:41.930Z,60.30
2018-05-25T01:56:47.702Z,60.33
2018-05-25T01:57:54.218Z,60.29
2018-05-25T01:59:00.735Z,60.31
2018-05-25T02:00:05.822Z,60.38
2018-05-25T02:01:12.334Z,60.46
2018-05-25T02:02:18.107Z,60.55
2018-05-25T02:03:24.629Z,60.65
2018-05-25T02:04:30.383Z,60.75
2018-05-25T02:05:36.132Z,60.78
2018-05-25T02:06:41.878Z,60.79
2018-05-25T02:07:47.650Z,60.89
2018-05-25T02:08:54.159Z,60.93
2018-05-25T02:09:59.919Z,60.98
2018-05-25T02:11:05.707Z,61.03
2018-05-25T02:12:12.202Z,61.00
2018-05-25T02:13:17.983Z,60.95
2018-05-25T02:14:24.517Z,60.89
2018-05-25T02:15:30.299Z,60.77
2018-05-25T02:16:36.812Z,60.74
2018-05-25T02:17:42.554Z,60.79
2018-05-25T02:18:48.342Z,60.77
2018-05-25T02:19:54.857Z,60.87
2018-05-25T02:21:00.619Z,60.99
2018-05-25T02:22:06.799Z,61.02
2018-05-25T02:23:12.546Z,61.13
2018-05-25T02:24:18.307Z,61.07
2018-05-25T02:25:24.063Z,61.08
2018-05-25T02:26:30.579Z,61.09
2018-05-25T02:27:37.091Z,61.04
2018-05-25T02:28:42.857Z,60.97
2018-05-25T02:29:48.624Z,60.85
2018-05-25T02:30:54.378Z,60.70
2018-05-25T02:31:59.954Z,60.69
2018-05-25T02:33:05.886Z,60.58
2018-05-25T02:34:11.636Z,60.49
2018-05-25T02:35:17.406Z,60.50
2018-05-25T02:36:23.923Z,60.45
2018-05-25T02:37:29.671Z,60.45
2018-05-25T02:38:35.478Z,60.39
2018-05-25T02:39:41.394Z,60.22
2018-05-25T02:40:47.212Z,60.21
2018-05-25T02:41:52.977Z,60.23
2018-05-25T02:42:58.723Z,60.11
2018-05-25T02:44:04.475Z,60.18
2018-05-25T02:45:11.001Z,60.15
2018-05-25T02:46:16.778Z,60.25
2018-05-25T02:47:23.299Z,60.19
2018-05-25T02:48:29.052Z,60.17
2018-05-25T02:49:34.479Z,60.27
2018-05-25T02:50:40.242Z,60.35
2018-05-25T02:51:46.027Z,60.40
2018-05-25T02:52:51.778Z,60.49
2018-05-25T02:53:57.544Z,60.52
2018-05-25T02:55:03.289Z,60.57
2018-05-25T02:56:09.050Z,60.50
2018-05-25T02:57:14.861Z,60.52
2018-05-25T02:58:20.798Z,60.58
2018-05-25T02:59:26.552Z,60.64
2018-05-25T03:00:32.350Z,60.67
2018-05-25T03:01:38.272Z,60.68
2018-05-25T03:02:44.928Z,60.79
2018-05-25T03:03:50.683Z,60.87
2018-05-25T03:04:57.204Z,61.07
2018-05-25T03:06:03.165Z,61.12
2018-05-25T03:07:09.253Z,61.08
2018-05-25T03:08:15.039Z,61.10
2018-05-25T03:09:20.792Z,61.25
2018-05-25T03:10:26.534Z,61.30
2018-05-25T03:11:32.282Z,61.44
2018-05-25T03:12:38.028Z,61.34
2018-05-25T03:13:43.811Z,61.24
2018-05-25T03:14:49.562Z,61.38
2018-05-25T03:15:55.316Z,61.39
2018-05-25T03:17:01.110Z,61.24
2018-05-25T03:18:07.077Z,61.21
2018-05-25T03:19:13.620Z,61.13
2018-05-25T03:20:20.349Z,61.16
2018-05-25T03:21:26.091Z,61.11
2018-05-25T03:22:31.935Z,61.19
2018-05-25T03:23:37.684Z,61.16
2018-05-25T03:24:44.229Z,61.13
2018-05-25T03:25:49.975Z,61.01
2018-05-25T03:26:55.732Z,60.83
2018-05-25T03:28:01.492Z,60.81
2018-05-25T03:29:07.230Z,60.89
2018-05-25T03:30:13.771Z,60.91
2018-05-25T03:31:19.522Z,60.98
2018-05-25T03:32:26.039Z,60.99
2018-05-25T03:33:31.787Z,61.01
2018-05-25T03:34:37.541Z,60.99
2018-05-25T03:35:43.334Z,61.09
2018-05-25T03:36:50.108Z,61.14
2018-05-25T03:37:55.872Z,61.06
2018-05-25T03:39:01.637Z,61.01
2018-05-25T03:40:07.394Z,61.01
2018-05-25T03:41:13.740Z,60.98
2018-05-25T03:42:19.492Z,60.96
2018-05-25T03:43:26.023Z,60.90
2018-05-25T03:44:31.779Z,60.91
2018-05-25T03:45:37.200Z,60.88
2018-05-25T03:46:42.976Z,60.78
2018-05-25T03:47:48.754Z,60.75
2018-05-25T03:48:54.506Z,60.70
2018-05-25T03:50:00.259Z,60.89
2018-05-25T03:51:06.046Z,60.88
2018-05-25T03:52:12.584Z,60.94
2018-05-25T03:53:18.335Z,60.78
2018-05-25T03:54:24.099Z,60.76
2018-05-25T03:55:30.628Z,60.69
2018-05-25T03:56:36.456Z,60.66
2018-05-25T03:57:42.234Z,60.61
2018-05-25T03:59:05.560Z,60.66
2018-05-25T04:00:28.379Z,60.70
2018-05-25T04:01:50.996Z,60.78
2018-05-25T04:02:58.223Z,60.77
2018-05-25T04:04:03.973Z,60.81
2018-05-25T04:05:10.490Z,60.83
2018-05-25T04:06:16.227Z,60.87
2018-05-25T04:07:21.998Z,60.91
2018-05-25T04:08:27.775Z,60.94
2018-05-25T04:09:34.302Z,61.01
2018-05-25T04:10:40.053Z,60.99
2018-05-25T04:11:45.835Z,61.04
2018-05-25T04:12:51.587Z,60.92
2018-05-25T04:13:57.374Z,61.16
2018-05-25T04:15:03.130Z,61.23
2018-05-25T04:16:08.993Z,61.17
2018-05-25T04:17:15.526Z,61.15
2018-05-25T04:18:21.283Z,61.11
2018-05-25T04:19:27.834Z,61.00
2018-05-25T04:20:33.583Z,60.88
2018-05-25T04:21:40.095Z,60.77
2018-05-25T04:22:45.860Z,60.66
2018-05-25T04:23:51.620Z,60.70
2018-05-25T04:24:58.170Z,60.60
2018-05-25T04:26:03.927Z,60.49
2018-05-25T04:27:10.451Z,60.44
2018-05-25T04:28:16.215Z,60.34
2018-05-25T04:29:22.188Z,60.15
2018-05-25T04:30:28.722Z,59.96
2018-05-25T04:31:34.480Z,59.83
2018-05-25T04:32:40.991Z,59.66
2018-05-25T04:33:46.743Z,59.45
2018-05-25T04:34:52.496Z,59.32
2018-05-25T04:35:59.781Z,59.20
2018-05-25T04:37:06.308Z,59.24
2018-05-25T04:38:12.061Z,59.33
2018-05-25T04:39:17.819Z,59.36
2018-05-25T04:40:24.346Z,59.45
2018-05-25T04:41:30.127Z,59.58
2018-05-25T04:42:35.878Z,59.58
2018-05-25T04:43:42.406Z,59.46
2018-05-25T04:44:48.162Z,59.45
2018-05-25T04:45:54.693Z,59.36
2018-05-25T04:47:00.469Z,59.37
2018-05-25T04:48:06.223Z,59.37
2018-05-25T04:49:12.831Z,59.29
2018-05-25T04:50:18.597Z,59.33
2018-05-25T04:51:24.355Z,59.27
2018-05-25T04:52:30.150Z,59.14
2018-05-25T04:53:36.095Z,59.12
2018-05-25T04:54:41.858Z,59.07
2018-05-25T04:55:47.624Z,59.06
2018-05-25T04:56:54.142Z,58.98
2018-05-25T04:58:00.111Z,58.79
2018-05-25T04:59:05.865Z,58.63
2018-05-25T05:00:11.629Z,58.54
2018-05-25T05:01:18.152Z,58.48
2018-05-25T05:02:23.951Z,58.36
2018-05-25T05:03:29.896Z,58.18
2018-05-25T05:04:36.412Z,58.20
2018-05-25T05:05:42.256Z,58.09
2018-05-25T05:06:48.007Z,58.29
2018-05-25T05:07:53.755Z,58.33
2018-05-25T05:08:59.541Z,58.44
2018-05-25T05:10:05.404Z,58.36
2018-05-25T05:11:11.159Z,58.55
2018-05-25T05:12:16.918Z,58.45
2018-05-25T05:13:22.706Z,58.46
2018-05-25T05:14:28.476Z,58.44
2018-05-25T05:15:34.789Z,58.28
2018-05-25T05:16:40.549Z,58.17
2018-05-25T05:17:46.522Z,58.16
2018-05-25T05:18:52.320Z,58.07
2018-05-25T05:19:57.182Z,58.14
2018-05-25T05:21:02.962Z,58.16
2018-05-25T05:22:09.503Z,57.94
2018-05-25T05:23:15.335Z,57.94
2018-05-25T05:24:21.095Z,57.77
2018-05-25T05:25:27.666Z,57.79
2018-05-25T05:26:34.191Z,57.59
2018-05-25T05:27:39.963Z,57.47
2018-05-25T05:28:45.747Z,57.47
2018-05-25T05:29:51.504Z,57.47
2018-05-25T05:30:57.298Z,57.29
2018-05-25T05:32:03.829Z,57.20
2018-05-25T05:33:09.616Z,57.13
2018-05-25T05:34:15.391Z,57.00
2018-05-25T05:35:21.192Z,56.71
2018-05-25T05:36:27.760Z,56.51
2018-05-25T05:37:34.285Z,56.46
2018-05-25T05:38:40.047Z,56.35
2018-05-25T05:39:46.596Z,56.30
2018-05-25T05:40:53.137Z,56.10
2018-05-25T05:41:58.907Z,56.09
2018-05-25T05:43:05.616Z,55.95
2018-05-25T05:44:11.427Z,55.72
2018-05-25T05:45:17.188Z,55.58
2018-05-25T05:46:22.948Z,55.56
2018-05-25T05:47:28.754Z,55.41
2018-05-25T05:48:35.279Z,55.50
2018-05-25T05:49:41.048Z,55.30
2018-05-25T05:50:47.023Z,55.11
2018-05-25T05:51:52.787Z,55.05
2018-05-25T05:52:58.573Z,55.13
2018-05-25T05:54:04.867Z,55.07
2018-05-25T05:55:10.712Z,54.54
2018-05-25T05:56:16.504Z,54.36
2018-05-25T05:57:22.289Z,54.14
2018-05-25T05:58:28.099Z,53.86
2018-05-25T05:59:34.623Z,53.59
2018-05-25T06:00:40.421Z,53.28
2018-05-25T06:01:46.233Z,53.11
2018-05-25T06:02:53.515Z,52.80
2018-05-25T06:04:00.055Z,52.53
2018-05-25T06:05:05.162Z,52.55
2018-05-25T06:06:10.946Z,52.67
2018-05-25T06:07:17.477Z,52.57
2018-05-25T06:08:23.233Z,52.53
2018-05-25T06:09:30.597Z,52.47
2018-05-25T06:10:35.699Z,52.33
2018-05-25T06:11:41.468Z,52.40
2018-05-25T06:12:48.007Z,52.20
2018-05-25T06:13:53.770Z,52.21
2018-05-25T06:14:59.660Z,52.07
2018-05-25T06:16:05.780Z,51.96
2018-05-25T06:17:11.539Z,51.84
2018-05-25T06:18:18.067Z,51.82
2018-05-25T06:19:23.830Z,51.79
2018-05-25T06:20:30.390Z,51.79
2018-05-25T06:21:37.144Z,51.78
2018-05-25T06:22:42.910Z,51.71
2018-05-25T06:23:49.442Z,51.77
2018-05-25T06:24:55.200Z,51.75
2018-05-25T06:26:01.996Z,51.90
2018-05-25T06:27:07.764Z,51.80
2018-05-25T06:28:13.523Z,51.74
2018-05-25T06:29:19.368Z,51.69
2018-05-25T06:30:25.135Z,51.85
2018-05-25T06:31:31.690Z,51.59
2018-05-25T06:32:38.223Z,51.50
2018-05-25T06:33:44.007Z,51.33
2018-05-25T06:34:50.892Z,51.22
2018-05-25T06:35:56.859Z,51.15
2018-05-25T06:37:02.660Z,50.80
2018-05-25T06:38:09.001Z,50.59
2018-05-25T06:39:16.303Z,50.57
2018-05-25T06:40:22.078Z,50.50
2018-05-25T06:41:27.992Z,49.64
2018-05-25T06:42:34.018Z,48.46
2018-05-25T06:43:39.778Z,46.65
2018-05-25T06:44:45.543Z,45.30
2018-05-25T06:45:51.310Z,43.69
2018-05-25T06:46:57.078Z,42.60
2018-05-25T06:48:02.895Z,41.42
2018-05-25T06:49:08.651Z,40.42
2018-05-25T06:50:15.179Z,39.41
2018-05-25T06:51:20.944Z,39.01
2018-05-25T06:52:26.696Z,38.22
2018-05-25T06:53:32.474Z,37.59
2018-05-25T06:54:38.226Z,36.98
2018-05-25T06:55:43.990Z,36.23
2018-05-25T06:56:49.745Z,35.52
2018-05-25T06:57:55.543Z,35.06
2018-05-25T06:59:01.501Z,34.64
2018-05-25T07:00:07.280Z,34.16
2018-05-25T07:01:13.048Z,33.53
2018-05-25T07:02:19.578Z,33.07
2018-05-25T07:03:25.332Z,32.71
2018-05-25T07:04:31.120Z,32.00
2018-05-25T07:05:36.911Z,31.66
2018-05-25T07:06:42.681Z,30.90
2018-05-25T07:07:49.209Z,30.18
2018-05-25T07:08:54.982Z,29.71
2018-05-25T07:10:01.606Z,29.28
2018-05-25T07:11:07.406Z,29.01
2018-05-25T07:12:13.952Z,28.51
2018-05-25T07:13:20.475Z,28.11
2018-05-25T07:14:26.243Z,27.88
2018-05-25T07:15:32.043Z,27.74
2018-05-25T07:16:37.796Z,27.27
2018-05-25T07:17:43.565Z,27.08
2018-05-25T07:18:50.099Z,27.18
2018-05-25T07:19:55.854Z,26.57
2018-05-25T07:21:01.644Z,26.32
2018-05-25T07:22:07.413Z,26.15
2018-05-25T07:23:13.166Z,25.92
2018-05-25T07:24:18.923Z,25.64
2018-05-25T07:25:24.702Z,25.54
2018-05-25T07:26:30.510Z,25.37
2018-05-25T07:27:36.271Z,25.32
2018-05-25T07:28:42.086Z,25.37
2018-05-25T07:29:49.355Z,25.26
2018-05-25T07:30:55.125Z,25.02
2018-05-25T07:32:00.911Z,24.90
2018-05-25T07:33:06.679Z,25.35
2018-05-25T07:34:12.432Z,25.37
2018-05-25T07:35:18.200Z,25.71
2018-05-25T07:36:24.745Z,25.65
2018-05-25T07:37:30.602Z,25.48
2018-05-25T07:38:37.142Z,25.19
2018-05-25T07:39:42.920Z,25.23
2018-05-25T07:40:48.670Z,25.07
2018-05-25T07:41:54.436Z,25.05
2018-05-25T07:43:00.231Z,25.42
2018-05-25T07:44:06.762Z,25.78
2018-05-25T07:45:12.534Z,25.97
2018-05-25T07:46:18.347Z,26.21
2018-05-25T07:47:24.130Z,26.13
2018-05-25T07:48:29.910Z,26.19
2018-05-25T07:49:35.666Z,26.45
2018-05-25T07:50:41.459Z,26.23
2018-05-25T07:51:47.982Z,25.69
2018-05-25T07:52:54.518Z,25.46
2018-05-25T07:54:00.303Z,25.03
2018-05-25T07:55:06.831Z,24.45
2018-05-25T07:56:12.616Z,24.47
2018-05-25T07:57:19.135Z,24.17
2018-05-25T07:58:24.894Z,23.54
2018-05-25T07:59:30.667Z,23.56
2018-05-25T08:00:36.452Z,23.70
2018-05-25T08:01:42.238Z,23.65
2018-05-25T08:02:48.760Z,23.52
2018-05-25T08:03:54.514Z,23.67
2018-05-25T08:05:00.344Z,23.75
2018-05-25T08:06:05.896Z,23.62
2018-05-25T08:07:11.712Z,23.46
2018-05-25T08:08:17.476Z,23.31
2018-05-25T08:09:23.234Z,23.15
2018-05-25T08:10:29.016Z,23.25
2018-05-25T08:11:34.773Z,23.10
2018-05-25T08:12:40.556Z,22.88
2018-05-25T08:13:47.347Z,22.59
2018-05-25T08:14:53.118Z,22.07
2018-05-25T08:15:58.636Z,21.92
2018-05-25T08:17:04.130Z,21.66
2018-05-25T08:18:09.633Z,21.47
2018-05-25T08:19:15.900Z,22.12
2018-05-25T08:20:22.214Z,22.12
2018-05-25T08:21:27.739Z,21.91
2018-05-25T08:22:33.246Z,21.68
2018-05-25T08:23:38.747Z,22.02
2018-05-25T08:24:44.248Z,21.75
2018-05-25T08:25:49.839Z,21.20
2018-05-25T08:26:55.377Z,21.24
2018-05-25T08:28:01.638Z,21.10
2018-05-25T08:29:07.416Z,20.89
2018-05-25T08:30:12.918Z,21.20
2018-05-25T08:31:18.416Z,21.68
2018-05-25T08:32:24.694Z,22.25
2018-05-25T08:33:30.211Z,22.21
2018-05-25T08:34:41.175Z,22.28
2018-05-25T08:35:47.442Z,22.27
2018-05-25T08:36:52.708Z,22.42
2018-05-25T08:37:59.247Z,22.15
2018-05-25T08:39:04.170Z,21.46
2018-05-25T08:40:09.661Z,21.55
2018-05-25T08:41:15.161Z,21.68
2018-05-25T08:42:20.655Z,22.04
2018-05-25T08:43:26.932Z,22.20
2018-05-25T08:44:32.440Z,22.21
2018-05-25T08:45:38.707Z,22.33
2018-05-25T08:46:44.972Z,22.45
2018-05-25T08:47:50.472Z,22.12
2018-05-25T08:48:55.992Z,22.50
2018-05-25T08:50:01.551Z,22.73
2018-05-25T08:51:08.231Z,22.52
2018-05-25T08:52:13.999Z,22.59
2018-05-25T08:53:19.520Z,22.28
2018-05-25T08:54:25.295Z,22.47
2018-05-25T08:55:31.828Z,22.07
2018-05-25T08:56:37.589Z,21.72
2018-05-25T08:57:43.083Z,21.69
2018-05-25T08:58:48.622Z,21.75
2018-05-25T08:59:54.155Z,21.75
2018-05-25T09:01:00.403Z,21.72
2018-05-25T09:02:07.038Z,22.10
2018-05-25T09:03:12.523Z,21.75
2018-05-25T09:04:18.019Z,21.17
2018-05-25T09:05:24.352Z,20.91
2018-05-25T09:06:29.843Z,20.60
2018-05-25T09:07:35.331Z,20.98
2018-05-25T09:08:40.824Z,21.13
2018-05-25T09:09:46.328Z,21.63
2018-05-25T09:10:51.833Z,21.69
2018-05-25T09:11:57.423Z,21.74
2018-05-25T09:13:02.914Z,21.35
2018-05-25T09:14:09.923Z,21.53
2018-05-25T09:15:16.213Z,21.67
2018-05-25T09:16:21.962Z,21.32
2018-05-25T09:17:27.481Z,20.93
2018-05-25T09:18:32.972Z,20.67
2018-05-25T09:19:39.231Z,20.39
2018-05-25T09:20:45.486Z,20.13
2018-05-25T09:21:51.795Z,20.26
2018-05-25T09:22:57.495Z,19.82
2018-05-25T09:24:03.760Z,19.70
2018-05-25T09:25:09.531Z,19.65
2018-05-25T09:26:15.031Z,19.77
2018-05-25T09:27:20.554Z,20.25
2018-05-25T09:28:26.826Z,20.36
2018-05-25T09:29:32.318Z,20.20
2018-05-25T09:30:37.820Z,20.21
2018-05-25T09:31:43.312Z,20.55
2018-05-25T09:32:49.827Z,20.82
2018-05-25T09:33:55.350Z,21.06
2018-05-25T09:35:00.847Z,21.28
2018-05-25T09:36:07.119Z,21.01
2018-05-25T09:37:12.623Z,20.91
2018-05-25T09:38:18.905Z,21.25
2018-05-25T09:39:24.404Z,21.44
2018-05-25T09:40:30.166Z,21.44
2018-05-25T09:41:36.419Z,21.30
2018-05-25T09:42:42.671Z,21.11
2018-05-25T09:43:48.195Z,21.08
2018-05-25T09:44:54.489Z,21.02
2018-05-25T09:45:59.981Z,20.85
2018-05-25T09:47:06.242Z,20.47
2018-05-25T09:48:12.710Z,20.02
2018-05-25T09:49:18.986Z,19.97
2018-05-25T09:50:24.475Z,20.08
2018-05-25T09:51:29.970Z,20.29
2018-05-25T09:52:35.474Z,19.98
2018-05-25T09:53:41.738Z,19.94
2018-05-25T09:54:47.258Z,20.03
2018-05-25T09:55:52.793Z,19.75
2018-05-25T09:57:01.016Z,19.68
2018-05-25T09:58:06.506Z,19.64
2018-05-25T09:59:12.198Z,19.27
2018-05-25T10:00:17.711Z,19.27
2018-05-25T10:01:23.206Z,19.69
2018-05-25T10:02:28.703Z,20.05
2018-05-25T10:03:33.533Z,20.35
2018-05-25T10:04:39.036Z,20.76
2018-05-25T10:05:44.819Z,20.75
2018-05-25T10:06:50.311Z,21.00
2018-05-25T10:07:56.077Z,20.91
2018-05-25T10:09:02.377Z,21.28
2018-05-25T10:10:07.926Z,21.01
2018-05-25T10:11:13.713Z,20.57
2018-05-25T10:12:20.231Z,20.42
2018-05-25T10:13:25.992Z,20.57
2018-05-25T10:14:31.757Z,20.80
2018-05-25T10:15:38.277Z,20.95
2018-05-25T10:16:44.071Z,20.85
2018-05-25T10:17:49.836Z,20.95
2018-05-25T10:18:55.613Z,21.01
2018-05-25T10:20:01.378Z,21.01
2018-05-25T10:21:07.907Z,20.74
2018-05-25T10:22:14.011Z,20.58
2018-05-25T10:23:19.775Z,20.70
2018-05-25T10:24:25.542Z,20.73
2018-05-25T10:25:31.291Z,21.04
2018-05-25T10:26:37.048Z,21.15
2018-05-25T10:27:43.599Z,21.30
2018-05-25T10:28:50.983Z,21.87
2018-05-25T10:29:56.882Z,22.52
2018-05-25T10:31:02.651Z,22.85
2018-05-25T10:32:08.404Z,23.40
2018-05-25T10:33:14.177Z,23.93
2018-05-25T10:34:20.703Z,24.30
2018-05-25T10:35:26.509Z,24.63
2018-05-25T10:36:33.191Z,25.09
2018-05-25T10:37:38.984Z,25.46
2018-05-25T10:38:45.523Z,25.95
2018-05-25T10:39:51.400Z,26.26
2018-05-25T10:40:57.193Z,26.57
2018-05-25T10:42:03.116Z,26.65
2018-05-25T10:43:08.872Z,26.69
2018-05-25T10:44:14.646Z,26.92
2018-05-25T10:45:20.622Z,27.24
2018-05-25T10:46:26.386Z,27.97
2018-05-25T10:47:32.142Z,28.41
2018-05-25T10:48:37.968Z,28.63
2018-05-25T10:49:44.663Z,28.64
2018-05-25T10:50:50.430Z,29.04
2018-05-25T10:51:56.946Z,29.51
2018-05-25T10:53:02.702Z,30.03
2018-05-25T10:54:08.466Z,30.07
2018-05-25T10:55:15.014Z,30.10
2018-05-25T10:56:20.440Z,30.20
2018-05-25T10:57:26.248Z,30.19
2018-05-25T10:58:32.002Z,30.00
2018-05-25T10:59:38.085Z,29.93
2018-05-25T11:00:43.862Z,29.89
2018-05-25T11:01:49.951Z,29.87
2018-05-25T11:02:55.712Z,30.25
2018-05-25T11:04:01.464Z,30.27
2018-05-25T11:05:07.235Z,30.24
2018-05-25T11:06:13.002Z,30.12
2018-05-25T11:07:18.759Z,30.03
2018-05-25T11:08:24.184Z,30.05
2018-05-25T11:09:29.935Z,29.97
2018-05-25T11:10:35.686Z,30.02
2018-05-25T11:11:42.228Z,30.05
2018-05-25T11:12:48.341Z,30.05
2018-05-25T11:13:54.094Z,29.97
2018-05-25T11:14:59.856Z,29.76
2018-05-25T11:16:05.268Z,29.82
2018-05-25T11:17:11.050Z,29.82
2018-05-25T11:18:16.816Z,29.91
2018-05-25T11:19:22.562Z,29.77
2018-05-25T11:20:29.107Z,29.77
2018-05-25T11:21:34.526Z,29.53
2018-05-25T11:22:40.319Z,29.48
2018-05-25T11:23:46.373Z,29.37
2018-05-25T11:24:52.126Z,29.50
2018-05-25T11:25:57.887Z,29.70
2018-05-25T11:27:03.644Z,29.53
2018-05-25T11:28:09.641Z,29.30
2018-05-25T11:29:16.007Z,29.08
2018-05-25T11:30:21.768Z,28.96
2018-05-25T11:31:27.521Z,28.89
2018-05-25T11:32:33.297Z,29.23
2018-05-25T11:33:39.072Z,29.37
2018-05-25T11:34:44.819Z,29.43
2018-05-25T11:35:50.251Z,29.37
2018-05-25T11:36:56.007Z,29.55
2018-05-25T11:38:01.775Z,29.59
2018-05-25T11:39:06.685Z,29.70
2018-05-25T11:40:12.460Z,29.76
2018-05-25T11:41:18.206Z,29.76
2018-05-25T11:42:24.743Z,29.77
2018-05-25T11:43:30.166Z,29.71
2018-05-25T11:44:35.961Z,29.83
2018-05-25T11:45:41.743Z,30.00
2018-05-25T11:46:47.492Z,30.01
2018-05-25T11:47:53.245Z,30.11
2018-05-25T11:48:58.995Z,30.17
2018-05-25T11:50:04.774Z,30.10
2018-05-25T11:51:10.540Z,29.99
2018-05-25T11:52:16.306Z,30.35
2018-05-25T11:53:22.063Z,30.61
2018-05-25T11:54:27.619Z,30.79
2018-05-25T11:55:34.164Z,30.92
2018-05-25T11:56:39.924Z,30.90
2018-05-25T11:57:45.783Z,30.99
2018-05-25T11:58:51.671Z,30.73
2018-05-25T11:59:57.435Z,30.57
2018-05-25T12:01:03.215Z,30.47
2018-05-25T12:02:09.011Z,30.13
2018-05-25T12:03:14.770Z,30.06
2018-05-25T12:04:21.084Z,30.00
2018-05-25T12:05:26.847Z,29.71
2018-05-25T12:06:32.657Z,29.73
2018-05-25T12:07:38.613Z,29.63
2018-05-25T12:08:44.371Z,29.52
2018-05-25T12:09:50.137Z,29.14
2018-05-25T12:10:56.677Z,28.90
2018-05-25T12:12:03.950Z,28.84
2018-05-25T12:13:09.707Z,28.77
2018-05-25T12:14:16.235Z,28.61
2018-05-25T12:15:22.003Z,28.23
2018-05-25T12:16:27.759Z,27.99
2018-05-25T12:17:34.307Z,28.20
2018-05-25T12:18:40.064Z,28.33
2018-05-25T12:19:46.592Z,28.36
2018-05-25T12:20:52.532Z,28.42
2018-05-25T12:21:58.299Z,28.17
2018-05-25T12:23:04.100Z,28.31
2018-05-25T12:24:09.655Z,28.49
2018-05-25T12:25:15.413Z,28.66
2018-05-25T12:26:21.219Z,28.74
2018-05-25T12:27:26.992Z,28.76
2018-05-25T12:28:32.940Z,28.58
2018-05-25T12:29:39.050Z,28.52
2018-05-25T12:30:44.955Z,28.35
2018-05-25T12:31:51.485Z,28.25
2018-05-25T12:32:57.685Z,28.09
2018-05-25T12:34:03.473Z,28.12
2018-05-25T12:35:09.249Z,27.81
2018-05-25T12:36:15.778Z,27.83
2018-05-25T12:37:21.543Z,27.58
2018-05-25T12:38:28.077Z,27.52
2018-05-25T12:39:33.853Z,27.36
2018-05-25T12:40:40.381Z,27.31
2018-05-25T12:41:46.147Z,27.27
2018-05-25T12:42:52.686Z,27.03
2018-05-25T12:43:58.441Z,27.14
2018-05-25T12:45:13.076Z,27.43
2018-05-25T12:46:18.900Z,27.51
2018-05-25T12:47:24.749Z,27.54
2018-05-25T12:48:30.525Z,27.56
2018-05-25T12:49:36.272Z,27.42
2018-05-25T12:50:42.910Z,27.31
2018-05-25T12:51:49.514Z,26.78
2018-05-25T12:52:55.299Z,26.73
2018-05-25T12:54:01.094Z,26.85
2018-05-25T12:55:07.633Z,26.93
2018-05-25T12:56:13.420Z,26.94
2018-05-25T12:57:19.209Z,27.00
2018-05-25T12:58:25.792Z,26.83
2018-05-25T12:59:32.371Z,26.87
2018-05-25T13:00:38.115Z,26.46
2018-05-25T13:01:43.995Z,26.07
2018-05-25T13:02:49.750Z,26.06
2018-05-25T13:03:55.514Z,26.16
2018-05-25T13:05:02.047Z,26.20
2018-05-25T13:06:07.876Z,26.32
2018-05-25T13:07:13.671Z,26.48
2018-05-25T13:08:20.193Z,26.70
2018-05-25T13:09:25.955Z,26.59
2018-05-25T13:10:31.724Z,26.60
2018-05-25T13:11:38.248Z,26.62
2018-05-25T13:12:44.013Z,26.58
2018-05-25T13:13:50.525Z,26.44
2018-05-25T13:14:56.288Z,26.45
2018-05-25T13:16:02.052Z,26.73
2018-05-25T13:17:08.567Z,27.04
2018-05-25T13:18:14.343Z,27.31
2018-05-25T13:19:20.100Z,27.35
2018-05-25T13:20:26.615Z,27.45
2018-05-25T13:21:32.382Z,27.50
2018-05-25T13:22:38.134Z,27.51
2018-05-25T13:23:44.678Z,27.57
2018-05-25T13:24:50.661Z,27.49
2018-05-25T13:25:56.451Z,27.38
2018-05-25T13:27:02.250Z,27.36
2018-05-25T13:28:08.255Z,27.34
2018-05-25T13:29:14.854Z,27.41
2018-05-25T13:30:21.140Z,27.61
2018-05-25T13:31:27.836Z,27.59
2018-05-25T13:32:33.597Z,27.50
2018-05-25T13:33:40.275Z,27.44
2018-05-25T13:34:46.238Z,27.30
2018-05-25T13:35:52.019Z,27.21
2018-05-25T13:36:57.443Z,27.16
2018-05-25T13:38:03.268Z,27.13
2018-05-25T13:39:09.086Z,26.90
2018-05-25T13:40:14.861Z,26.17
2018-05-25T13:41:20.608Z,25.82
2018-05-25T13:42:26.376Z,25.79
2018-05-25T13:43:32.161Z,25.96
2018-05-25T13:44:38.137Z,26.51
2018-05-25T13:45:43.925Z,26.85
2018-05-25T13:46:50.276Z,27.02
2018-05-25T13:47:56.796Z,26.95
2018-05-25T13:49:02.556Z,26.97
2018-05-25T13:50:08.318Z,26.87
2018-05-25T13:51:14.874Z,26.73
2018-05-25T13:52:20.621Z,26.12
2018-05-25T13:53:27.184Z,25.92
2018-05-25T13:54:33.743Z,26.20
2018-05-25T13:55:40.327Z,26.33
2018-05-25T13:56:46.097Z,26.42
2018-05-25T13:57:51.859Z,26.59
2018-05-25T13:58:57.615Z,26.61
2018-05-25T14:00:04.367Z,26.47
2018-05-25T14:01:10.127Z,26.12
2018-05-25T14:02:15.935Z,26.13
2018-05-25T14:03:21.709Z,26.16
2018-05-25T14:04:27.468Z,26.25
2018-05-25T14:05:32.891Z,26.41
2018-05-25T14:06:38.648Z,26.46
2018-05-25T14:07:45.200Z,26.60
2018-05-25T14:08:51.464Z,26.67
2018-05-25T14:09:56.890Z,26.57
2018-05-25T14:11:03.451Z,26.52